createdAt,value
2018-03-21T00:01:08.742Z,102217.90
2018-03-21T00:03:37.200Z,102214.11
2018-03-21T00:06:05.602Z,102225.66
2018-03-21T00:08:34.062Z,102233.27
2018-03-21T00:11:02.448Z,102242.92
2018-03-21T00:13:31.011Z,102242.09
2018-03-21T00:15:59.385Z,102244.44
2018-03-21T00:18:27.794Z,102248.77
2018-03-21T00:20:56.180Z,102250.19
2018-03-21T00:23:25.332Z,102251.97
2018-03-21T00:25:53.711Z,102249.86
2018-03-21T00:28:22.207Z,102255.91
2018-03-21T00:30:50.639Z,102252.61
2018-03-21T00:33:19.808Z,102259.64
2018-03-21T00:35:48.210Z,102259.83
2018-03-21T00:38:17.354Z,102263.86
2018-03-21T00:40:46.148Z,102273.34
2018-03-21T00:43:14.626Z,102277.83
2018-03-21T00:45:43.163Z,102269.11
2018-03-21T00:48:11.581Z,102272.66
2018-03-21T00:50:40.025Z,102271.94
2018-03-21T00:53:08.462Z,102271.42
2018-03-21T00:55:36.965Z,102278.29
2018-03-21T00:58:05.374Z,102274.00
2018-03-21T01:00:34.519Z,102277.37
2018-03-21T01:03:02.937Z,102272.83
2018-03-21T01:05:31.373Z,102272.83
2018-03-21T01:07:59.833Z,102280.20
2018-03-21T01:10:29.017Z,102288.53
2018-03-21T01:12:58.256Z,102293.03
2018-03-21T01:15:26.845Z,102290.73
2018-03-21T01:17:55.224Z,102291.03
2018-03-21T01:20:23.606Z,102290.14
2018-03-21T01:22:52.003Z,102283.56
2018-03-21T01:25:20.420Z,102284.59
2018-03-21T01:27:49.570Z,102281.42
2018-03-21T01:30:18.063Z,102285.84
2018-03-21T01:32:46.456Z,102282.55
2018-03-21T01:35:14.839Z,102284.27
2018-03-21T01:37:43.223Z,102278.94
2018-03-21T01:40:11.679Z,102281.44
2018-03-21T01:42:40.382Z,102283.73
2018-03-21T01:45:08.899Z,102283.91
2018-03-21T01:47:37.299Z,102287.00
2018-03-21T01:50:07.028Z,102286.97
2018-03-21T01:52:35.432Z,102285.78
2018-03-21T01:55:03.836Z,102289.78
2018-03-21T01:57:33.051Z,102279.70
2018-03-21T02:00:01.481Z,102283.08
2018-03-21T02:02:29.978Z,102290.51
2018-03-21T02:04:58.580Z,102285.92
2018-03-21T02:07:26.985Z,102290.44
2018-03-21T02:09:55.399Z,102292.69
2018-03-21T02:12:23.772Z,102288.06
2018-03-21T02:14:52.202Z,102294.98
2018-03-21T02:17:20.782Z,102285.52
2018-03-21T02:19:49.172Z,102291.95
2018-03-21T02:22:17.602Z,102281.33
2018-03-21T02:24:47.007Z,102286.27
2018-03-21T02:27:15.520Z,102294.04
2018-03-21T02:29:43.903Z,102291.72
2018-03-21T02:32:12.306Z,102288.72
2018-03-21T02:34:40.720Z,102282.13
2018-03-21T02:37:09.984Z,102290.11
2018-03-21T02:39:39.252Z,102298.00
2018-03-21T02:42:07.632Z,102296.77
2018-03-21T02:44:36.031Z,102291.05
2018-03-21T02:47:04.574Z,102298.50
2018-03-21T02:49:32.979Z,102298.68
2018-03-21T02:52:01.349Z,102296.58
2018-03-21T02:54:29.715Z,102292.91
2018-03-21T02:56:58.123Z,102298.56
2018-03-21T02:59:26.574Z,102298.71
2018-03-21T03:01:55.792Z,102294.45
2018-03-21T03:04:24.186Z,102293.80
2018-03-21T03:06:53.478Z,102296.38
2018-03-21T03:09:21.973Z,102294.31
2018-03-21T03:11:50.391Z,102297.33
2018-03-21T03:14:19.566Z,102301.82
2018-03-21T03:16:47.951Z,102301.69
2018-03-21T03:19:16.400Z,102300.19
2018-03-21T03:21:44.885Z,102298.37
2018-03-21T03:24:13.275Z,102302.47
2018-03-21T03:26:41.693Z,102301.90
2018-03-21T03:29:10.311Z,102308.98
2018-03-21T03:31:38.779Z,102314.67
2018-03-21T03:34:07.364Z,102312.42
2018-03-21T03:36:35.750Z,102321.23
2018-03-21T03:39:04.280Z,102318.48
2018-03-21T03:41:32.826Z,102325.33
2018-03-21T03:44:01.325Z,102321.08
2018-03-21T03:46:29.753Z,102321.98
2018-03-21T03:48:58.892Z,102326.63
2018-03-21T03:51:27.298Z,102329.90
2018-03-21T03:54:00.630Z,102330.52
2018-03-21T03:56:29.783Z,102325.36
2018-03-21T03:58:58.239Z,102332.16
2018-03-21T04:01:26.621Z,102335.08
2018-03-21T04:03:55.028Z,102333.52
2018-03-21T04:06:23.456Z,102335.28
2018-03-21T04:08:52.587Z,102335.06
2018-03-21T04:11:20.970Z,102332.14
2018-03-21T04:13:49.340Z,102338.14
2018-03-21T04:16:17.738Z,102331.41
2018-03-21T04:18:46.130Z,102328.13
2018-03-21T04:21:14.741Z,102332.53
2018-03-21T04:23:43.895Z,102328.70
2018-03-21T04:26:12.287Z,102333.65
2018-03-21T04:28:40.690Z,102333.58
2018-03-21T04:31:09.830Z,102336.78
2018-03-21T04:33:38.261Z,102324.33
2018-03-21T04:36:06.818Z,102329.78
2018-03-21T04:38:35.391Z,102328.27
2018-03-21T04:41:03.767Z,102328.94
2018-03-21T04:43:32.152Z,102333.86
2018-03-21T04:46:00.576Z,102332.09
2018-03-21T04:48:29.050Z,102329.40
2018-03-21T04:50:58.309Z,102332.00
2018-03-21T04:53:26.731Z,102329.77
2018-03-21T04:55:55.920Z,102330.52
2018-03-21T04:58:24.284Z,102336.19
2018-03-21T05:00:52.692Z,102332.62
2018-03-21T05:03:21.850Z,102336.48
2018-03-21T05:05:50.232Z,102331.42
2018-03-21T05:08:18.722Z,102327.20
2018-03-21T05:10:47.120Z,102329.54
2018-03-21T05:13:15.529Z,102333.52
2018-03-21T05:15:44.843Z,102342.81
2018-03-21T05:18:13.230Z,102337.09
2018-03-21T05:20:41.648Z,102341.72
2018-03-21T05:23:10.190Z,102354.99
2018-03-21T05:25:39.364Z,102351.15
2018-03-21T05:28:07.911Z,102344.66
2018-03-21T05:30:36.325Z,102346.45
2018-03-21T05:33:04.725Z,102347.66
2018-03-21T05:35:33.896Z,102346.31
2018-03-21T05:38:03.079Z,102346.18
2018-03-21T05:40:31.546Z,102351.59
2018-03-21T05:42:59.946Z,102346.17
2018-03-21T05:45:28.640Z,102343.33
2018-03-21T05:47:57.040Z,102341.38
2018-03-21T05:50:26.343Z,102348.78
2018-03-21T05:52:55.517Z,102355.20
2018-03-21T05:55:23.930Z,102343.36
2018-03-21T05:57:53.087Z,102359.63
2018-03-21T06:00:21.577Z,102355.98
2018-03-21T06:02:50.115Z,102362.70
2018-03-21T06:05:18.566Z,102360.70
2018-03-21T06:07:47.707Z,102364.81
2018-03-21T06:10:16.300Z,102365.61
2018-03-21T06:12:44.671Z,102364.70
2018-03-21T06:15:13.104Z,102363.80
2018-03-21T06:17:41.525Z,102360.38
2018-03-21T06:20:09.923Z,102367.77
2018-03-21T06:22:38.351Z,102372.35
2018-03-21T06:25:08.199Z,102379.14
2018-03-21T06:27:36.645Z,102373.52
2018-03-21T06:30:05.941Z,102371.08
2018-03-21T06:32:35.090Z,102378.11
2018-03-21T06:35:03.502Z,102374.70
2018-03-21T06:37:31.910Z,102380.98
2018-03-21T06:40:01.092Z,102390.09
2018-03-21T06:42:29.473Z,102391.90
2018-03-21T06:44:57.935Z,102389.75
2018-03-21T06:47:26.319Z,102396.50
2018-03-21T06:49:54.784Z,102397.62
2018-03-21T06:52:23.177Z,102400.91
2018-03-21T06:54:51.584Z,102414.08
2018-03-21T06:57:20.743Z,102420.91
2018-03-21T06:59:49.162Z,102414.97
2018-03-21T07:02:18.335Z,102424.02
2018-03-21T07:04:46.743Z,102422.92
2018-03-21T07:07:15.899Z,102434.00
2018-03-21T07:09:44.663Z,102435.67
2018-03-21T07:12:13.072Z,102435.40
2018-03-21T07:14:59.271Z,102442.31
2018-03-21T07:17:27.674Z,102437.89
2018-03-21T07:19:57.092Z,102438.09
2018-03-21T07:22:26.283Z,102441.27
2018-03-21T07:24:54.692Z,102449.08
2018-03-21T07:27:23.119Z,102451.91
2018-03-21T07:29:51.512Z,102453.36
2018-03-21T07:32:19.922Z,102455.81
2018-03-21T07:34:49.093Z,102457.72
2018-03-21T07:37:18.654Z,102463.56
2018-03-21T07:39:47.074Z,102473.81
2018-03-21T07:42:15.515Z,102477.55
2018-03-21T07:44:43.935Z,102479.16
2018-03-21T07:47:12.355Z,102488.27
2018-03-21T07:49:40.744Z,102487.44
2018-03-21T07:52:09.129Z,102491.70
2018-03-21T07:54:37.507Z,102487.16
2018-03-21T07:57:05.915Z,102484.53
2018-03-21T07:59:34.499Z,102490.53
2018-03-21T08:02:03.036Z,102490.24
2018-03-21T08:04:33.013Z,102488.19
2018-03-21T08:07:01.415Z,102484.39
2018-03-21T08:09:29.775Z,102488.83
2018-03-21T08:11:58.172Z,102493.66
2018-03-21T08:14:26.618Z,102486.89
2018-03-21T08:16:55.734Z,102478.30
2018-03-21T08:19:24.109Z,102477.10
2018-03-21T08:21:52.508Z,102487.69
2018-03-21T08:24:21.052Z,102492.67
2018-03-21T08:26:49.509Z,102496.67
2018-03-21T08:29:18.753Z,102502.00
2018-03-21T08:31:48.038Z,102496.98
2018-03-21T08:34:16.536Z,102497.30
2018-03-21T08:36:44.991Z,102509.81
2018-03-21T08:39:13.434Z,102509.87
2018-03-21T08:41:42.701Z,102510.66
2018-03-21T08:44:11.147Z,102514.01
2018-03-21T08:46:39.535Z,102513.53
2018-03-21T08:49:07.912Z,102521.08
2018-03-21T08:51:36.312Z,102526.58
2018-03-21T08:54:04.911Z,102530.34
2018-03-21T08:56:33.356Z,102536.98
2018-03-21T08:59:01.836Z,102532.16
2018-03-21T09:01:30.282Z,102532.38
2018-03-21T09:03:58.820Z,102539.09
2018-03-21T09:06:27.292Z,102529.76
2018-03-21T09:08:55.679Z,102531.53
2018-03-21T09:11:24.101Z,102531.37
2018-03-21T09:13:52.640Z,102526.05
2018-03-21T09:16:21.286Z,102526.28
2018-03-21T09:18:50.438Z,102532.09
2018-03-21T09:21:18.837Z,102527.87
2018-03-21T09:23:47.253Z,102526.19
2018-03-21T09:26:16.463Z,102530.19
2018-03-21T09:28:44.990Z,102527.58
2018-03-21T09:31:14.169Z,102529.65
2018-03-21T09:33:42.576Z,102521.36
2018-03-21T09:36:11.042Z,102514.70
2018-03-21T09:38:39.575Z,102512.29
2018-03-21T09:41:08.792Z,102511.31
2018-03-21T09:43:37.187Z,102509.73
2018-03-21T09:46:05.568Z,102509.22
2018-03-21T09:48:34.041Z,102503.27
2018-03-21T09:51:02.488Z,102507.71
2018-03-21T09:53:30.912Z,102504.56
2018-03-21T09:55:59.309Z,102501.81
2018-03-21T09:58:27.738Z,102491.49
2018-03-21T10:00:56.139Z,102498.16
2018-03-21T10:03:24.567Z,102499.64
2018-03-21T10:05:53.190Z,102500.48
2018-03-21T10:08:22.462Z,102492.50
2018-03-21T10:10:50.855Z,102497.06
2018-03-21T10:13:19.253Z,102492.41
2018-03-21T10:15:49.338Z,102497.63
2018-03-21T10:18:17.691Z,102503.19
2018-03-21T10:20:46.298Z,102512.27
2018-03-21T10:23:14.697Z,102516.04
2018-03-21T10:25:43.087Z,102515.83
2018-03-21T10:28:11.487Z,102518.94
2018-03-21T10:30:40.748Z,102517.81
2018-03-21T10:33:09.172Z,102509.75
2018-03-21T10:35:38.559Z,102497.05
2018-03-21T10:38:07.079Z,102495.55
2018-03-21T10:40:35.537Z,102505.34
2018-03-21T10:43:04.695Z,102500.81
2018-03-21T10:45:33.117Z,102504.23
2018-03-21T10:48:02.284Z,102504.66
2018-03-21T10:50:30.846Z,102496.84
2018-03-21T10:52:59.258Z,102495.27
2018-03-21T10:55:27.646Z,102488.33
2018-03-21T10:57:56.045Z,102489.86
2018-03-21T11:00:25.204Z,102488.54
2018-03-21T11:03:09.378Z,102494.13
2018-03-21T11:05:38.527Z,102493.12
2018-03-21T11:08:07.127Z,102492.84
2018-03-21T11:10:35.528Z,102490.01
2018-03-21T11:13:04.066Z,102490.20
2018-03-21T11:15:32.458Z,102495.19
2018-03-21T11:18:00.855Z,102498.28
2018-03-21T11:20:29.239Z,102505.78
2018-03-21T11:22:57.648Z,102498.13
2018-03-21T11:25:26.113Z,102501.99
2018-03-21T11:27:54.512Z,102511.87
2018-03-21T11:30:22.891Z,102505.45
2018-03-21T11:32:51.329Z,102503.66
2018-03-21T11:35:19.760Z,102491.78
2018-03-21T11:37:48.955Z,102490.40
2018-03-21T11:40:17.428Z,102488.23
2018-03-21T11:42:45.821Z,102484.11
2018-03-21T11:45:14.344Z,102483.41
2018-03-21T11:47:42.792Z,102476.70
2018-03-21T11:50:11.966Z,102473.11
2018-03-21T11:52:40.439Z,102474.63
2018-03-21T11:55:08.921Z,102468.00
2018-03-21T11:57:37.396Z,102461.59
2018-03-21T12:00:05.798Z,102459.73
2018-03-21T12:02:34.256Z,102461.56
2018-03-21T12:05:02.680Z,102456.14
2018-03-21T12:07:31.955Z,102456.81
2018-03-21T12:10:00.366Z,102451.23
2018-03-21T12:12:29.518Z,102451.33
2018-03-21T12:14:57.983Z,102459.06
2018-03-21T12:17:26.368Z,102454.19
2018-03-21T12:19:54.795Z,102454.84
2018-03-21T12:22:23.969Z,102452.19
2018-03-21T12:24:52.357Z,102446.07
2018-03-21T12:27:20.784Z,102450.03
2018-03-21T12:29:49.934Z,102452.25
2018-03-21T12:32:18.343Z,102443.73
2018-03-21T12:34:47.599Z,102440.31
2018-03-21T12:37:16.032Z,102434.47
2018-03-21T12:39:45.306Z,102429.96
2018-03-21T12:42:13.754Z,102427.00
2018-03-21T12:44:42.232Z,102421.14
2018-03-21T12:47:10.723Z,102420.90
2018-03-21T12:49:40.097Z,102418.23
2018-03-21T12:52:09.269Z,102415.48
2018-03-21T12:54:37.756Z,102406.34
2018-03-21T12:57:06.209Z,102405.44
2018-03-21T12:59:34.781Z,102399.41
2018-03-21T13:02:03.322Z,102397.86
2018-03-21T13:04:32.493Z,102391.70
2018-03-21T13:07:00.884Z,102384.34
2018-03-21T13:09:30.147Z,102378.36
2018-03-21T13:11:58.539Z,102378.15
2018-03-21T13:14:27.037Z,102376.40
2018-03-21T13:16:55.469Z,102360.01
2018-03-21T13:19:23.860Z,102365.31
2018-03-21T13:21:53.045Z,102365.09
2018-03-21T13:24:21.746Z,102365.43
2018-03-21T13:26:50.124Z,102366.70
2018-03-21T13:29:19.259Z,102376.57
2018-03-21T13:31:47.650Z,102377.97
2018-03-21T13:34:16.178Z,102370.88
2018-03-21T13:36:44.546Z,102362.05
2018-03-21T13:39:12.985Z,102356.09
2018-03-21T13:41:41.386Z,102363.94
2018-03-21T13:44:09.764Z,102351.63
2018-03-21T13:46:38.172Z,102347.75
2018-03-21T13:49:06.696Z,102342.00
2018-03-21T13:51:35.669Z,102345.55
2018-03-21T13:54:04.180Z,102355.73
2018-03-21T13:56:32.647Z,102355.02
2018-03-21T13:59:04.601Z,102359.59
2018-03-21T14:01:33.006Z,102364.31
2018-03-21T14:04:02.263Z,102363.28
2018-03-21T14:06:30.658Z,102358.73
2018-03-21T14:08:59.096Z,102370.20
2018-03-21T14:11:27.588Z,102359.52
2018-03-21T14:13:55.972Z,102360.83
2018-03-21T14:16:24.559Z,102353.42
2018-03-21T14:18:52.943Z,102340.67
2018-03-21T14:21:21.378Z,102337.25
2018-03-21T14:23:49.942Z,102338.68
2018-03-21T14:26:18.479Z,102339.76
2018-03-21T14:28:46.909Z,102315.30
2018-03-21T14:31:15.491Z,102319.39
2018-03-21T14:33:44.031Z,102312.38
2018-03-21T14:36:13.505Z,102314.27
2018-03-21T14:38:42.648Z,102305.47
2018-03-21T14:41:11.067Z,102311.64
2018-03-21T14:43:40.290Z,102317.84
2018-03-21T14:46:09.496Z,102303.63
2018-03-21T14:48:38.823Z,102306.23
2018-03-21T14:51:07.220Z,102302.31
2018-03-21T14:53:35.662Z,102300.74
2018-03-21T14:56:04.896Z,102312.53
2018-03-21T14:58:33.452Z,102312.58
2018-03-21T15:01:02.644Z,102306.80
2018-03-21T15:03:31.804Z,102308.08
2018-03-21T15:06:00.216Z,102298.11
2018-03-21T15:08:28.706Z,102296.79
2018-03-21T15:10:57.888Z,102292.95
2018-03-21T15:13:26.304Z,102286.19
2018-03-21T15:15:54.707Z,102284.77
2018-03-21T15:18:23.108Z,102279.50
2018-03-21T15:20:51.502Z,102275.08
2018-03-21T15:23:21.488Z,102273.48
2018-03-21T15:25:49.925Z,102274.08
2018-03-21T15:28:18.435Z,102270.21
2018-03-21T15:30:46.882Z,102265.12
2018-03-21T15:33:16.033Z,102270.22
2018-03-21T15:35:44.481Z,102267.62
2018-03-21T15:38:13.169Z,102267.21
2018-03-21T15:40:41.557Z,102269.84
2018-03-21T15:43:10.008Z,102275.05
2018-03-21T15:45:38.666Z,102267.67
2018-03-21T15:48:07.148Z,102265.98
2018-03-21T15:50:35.567Z,102261.63
2018-03-21T15:53:04.025Z,102255.14
2018-03-21T15:55:32.512Z,102251.66
2018-03-21T15:58:00.926Z,102249.36
2018-03-21T16:00:29.384Z,102249.84
2018-03-21T16:02:58.628Z,102254.89
2018-03-21T16:05:27.072Z,102251.41
2018-03-21T16:07:56.301Z,102246.09
2018-03-21T16:10:24.797Z,102238.95
2018-03-21T16:13:03.110Z,102237.88
2018-03-21T16:15:31.507Z,102233.59
2018-03-21T16:17:59.963Z,102233.23
2018-03-21T16:20:28.448Z,102226.92
2018-03-21T16:22:56.914Z,102237.92
2018-03-21T16:25:26.060Z,102233.17
2018-03-21T16:27:54.459Z,102236.81
2018-03-21T16:30:22.859Z,102230.76
2018-03-21T16:32:52.016Z,102232.95
2018-03-21T16:35:20.433Z,102230.22
2018-03-21T16:37:48.820Z,102222.56
2018-03-21T16:40:17.988Z,102221.54
2018-03-21T16:42:46.387Z,102218.53
2018-03-21T16:45:14.906Z,102223.45
2018-03-21T16:47:43.423Z,102221.52
2018-03-21T16:50:11.855Z,102231.48
2018-03-21T16:52:41.060Z,102230.71
2018-03-21T16:55:09.451Z,102235.75
2018-03-21T16:57:37.854Z,102239.13
2018-03-21T17:00:06.235Z,102230.92
2018-03-21T17:02:34.709Z,102238.45
2018-03-21T17:05:04.048Z,102232.86
2018-03-21T17:07:32.531Z,102232.38
2018-03-21T17:10:00.961Z,102231.04
2018-03-21T17:12:29.376Z,102232.84
2018-03-21T17:14:57.789Z,102227.76
2018-03-21T17:17:27.199Z,102231.14
2018-03-21T17:19:55.728Z,102226.13
2018-03-21T17:22:24.131Z,102224.97
2018-03-21T17:24:52.711Z,102226.75
2018-03-21T17:27:21.200Z,102227.67
2018-03-21T17:29:49.596Z,102231.00
2018-03-21T17:32:18.000Z,102224.70
2018-03-21T17:34:46.487Z,102219.82
2018-03-21T17:37:15.659Z,102221.45
2018-03-21T17:39:44.110Z,102217.64
2018-03-21T17:42:12.770Z,102208.56
2018-03-21T17:44:41.984Z,102214.34
2018-03-21T17:47:10.518Z,102204.47
2018-03-21T17:49:38.973Z,102199.71
2018-03-21T17:52:07.439Z,102202.87
2018-03-21T17:54:36.780Z,102201.30
2018-03-21T17:57:05.186Z,102202.09
2018-03-21T17:59:33.621Z,102196.33
2018-03-21T18:02:02.078Z,102198.80
2018-03-21T18:04:30.499Z,102199.62
2018-03-21T18:06:59.135Z,102203.50
2018-03-21T18:09:27.751Z,102193.48
2018-03-21T18:11:56.144Z,102193.48
2018-03-21T18:14:24.597Z,102190.06
2018-03-21T18:16:53.193Z,102191.30
2018-03-21T18:19:21.616Z,102185.76
2018-03-21T18:21:50.005Z,102182.87
2018-03-21T18:24:18.461Z,102188.30
2018-03-21T18:26:46.859Z,102184.91
2018-03-21T18:29:15.271Z,102197.98
2018-03-21T18:31:44.510Z,102198.03
2018-03-21T18:34:12.918Z,102194.05
2018-03-21T18:36:41.362Z,102186.53
2018-03-21T18:39:09.766Z,102180.56
2018-03-21T18:41:38.250Z,102186.97
2018-03-21T18:44:06.706Z,102192.81
2018-03-21T18:46:35.134Z,102183.66
2018-03-21T18:49:03.523Z,102177.65
2018-03-21T18:51:32.721Z,102177.64
2018-03-21T18:54:01.290Z,102174.14
2018-03-21T18:56:29.767Z,102174.58
2018-03-21T18:58:59.034Z,102174.72
2018-03-21T19:01:27.450Z,102171.63
2018-03-21T19:03:59.427Z,102167.45
2018-03-21T19:06:28.037Z,102166.77
2018-03-21T19:08:56.547Z,102171.12
2018-03-21T19:11:25.082Z,102164.58
2018-03-21T19:13:53.488Z,102163.66
2018-03-21T19:16:22.022Z,102164.42
2018-03-21T19:18:51.255Z,102167.64
2018-03-21T19:21:20.455Z,102169.45
2018-03-21T19:23:48.933Z,102162.33
2018-03-21T19:26:17.535Z,102157.61
2018-03-21T19:28:46.021Z,102162.05
2018-03-21T19:31:14.421Z,102162.59
2018-03-21T19:33:42.956Z,102154.89
2018-03-21T19:36:11.660Z,102158.16
2018-03-21T19:38:50.451Z,102160.06
2018-03-21T19:41:19.744Z,102159.88
2018-03-21T19:43:48.282Z,102151.25
2018-03-21T19:46:16.688Z,102154.25
2018-03-21T19:48:45.108Z,102148.79
2018-03-21T19:51:13.620Z,102146.22
2018-03-21T19:53:42.058Z,102150.94
2018-03-21T19:56:10.511Z,102151.27
2018-03-21T19:58:39.013Z,102147.89
2018-03-21T20:01:07.655Z,102150.98
2018-03-21T20:03:36.064Z,102150.50
2018-03-21T20:06:04.481Z,102147.52
2018-03-21T20:08:32.896Z,102142.61
2018-03-21T20:11:02.264Z,102139.70
2018-03-21T20:13:30.689Z,102134.30
2018-03-21T20:15:59.126Z,102141.04
2018-03-21T20:18:27.533Z,102128.59
2018-03-21T20:20:55.967Z,102131.49
2018-03-21T20:23:24.370Z,102126.38
2018-03-21T20:25:52.944Z,102127.95
2018-03-21T20:28:22.427Z,102118.64
2018-03-21T20:30:50.840Z,102117.49
2018-03-21T20:33:19.722Z,102114.17
2018-03-21T20:35:48.998Z,102111.55
2018-03-21T20:38:18.597Z,102115.84
2018-03-21T20:40:50.223Z,102111.12
2018-03-21T20:43:18.671Z,102110.86
2018-03-21T20:45:47.105Z,102102.02
2018-03-21T20:48:16.325Z,102100.52
2018-03-21T20:50:44.735Z,102095.20
2018-03-21T20:53:13.165Z,102094.59
2018-03-21T20:55:42.412Z,102095.05
2018-03-21T20:58:10.783Z,102091.26
2018-03-21T21:00:41.120Z,102086.42
2018-03-21T21:03:09.692Z,102087.19
2018-03-21T21:05:39.232Z,102079.87
2018-03-21T21:08:10.490Z,102086.67
2018-03-21T21:10:39.026Z,102074.73
2018-03-21T21:13:07.492Z,102074.62
2018-03-21T21:15:35.973Z,102071.59
2018-03-21T21:18:05.592Z,102075.88
2018-03-21T21:20:34.015Z,102073.81
2018-03-21T21:23:10.343Z,102069.22
2018-03-21T21:25:38.772Z,102066.12
2018-03-21T21:28:07.408Z,102063.47
2018-03-21T21:30:35.795Z,102060.28
2018-03-21T21:33:04.242Z,102061.16
2018-03-21T21:35:32.661Z,102058.90
2018-03-21T21:38:01.113Z,102056.60
2018-03-21T21:40:30.432Z,102050.22
2018-03-21T21:42:58.840Z,102048.92
2018-03-21T21:45:27.278Z,102052.23
2018-03-21T21:47:56.459Z,102040.08
2018-03-21T21:50:25.056Z,102042.55
2018-03-21T21:52:53.477Z,102040.04
2018-03-21T21:55:21.970Z,102038.27
2018-03-21T21:57:50.504Z,102042.91
2018-03-21T22:00:18.903Z,102045.56
2018-03-21T22:02:47.344Z,102037.70
2018-03-21T22:05:15.738Z,102032.39
2018-03-21T22:07:44.122Z,102021.20
2018-03-21T22:10:12.558Z,102017.63
2018-03-21T22:12:40.993Z,102011.33
2018-03-21T22:15:10.189Z,102012.27
2018-03-21T22:17:38.606Z,102005.56
2018-03-21T22:20:07.117Z,102003.34
2018-03-21T22:22:35.576Z,102000.48
2018-03-21T22:25:03.990Z,102005.89
2018-03-21T22:27:32.524Z,102001.38
2018-03-21T22:30:01.709Z,101999.92
2018-03-21T22:32:30.845Z,101992.36
2018-03-21T22:34:59.237Z,101981.23
2018-03-21T22:37:27.664Z,101982.51
2018-03-21T22:39:56.824Z,101981.05
2018-03-21T22:42:25.242Z,101978.52
2018-03-21T22:44:53.667Z,101980.64
2018-03-21T22:47:22.106Z,101977.75
2018-03-21T22:49:51.276Z,101973.27
2018-03-21T22:52:19.679Z,101964.39
2018-03-21T22:54:48.148Z,101956.31
2018-03-21T22:57:16.598Z,101957.33
2018-03-21T22:59:45.094Z,101950.19
2018-03-21T23:02:13.643Z,101945.85
2018-03-21T23:04:42.034Z,101942.55
2018-03-21T23:07:10.455Z,101937.84
2018-03-21T23:09:38.847Z,101933.27
2018-03-21T23:12:07.299Z,101925.75
2018-03-21T23:14:35.692Z,101925.57
2018-03-21T23:17:04.077Z,101925.45
2018-03-21T23:19:32.526Z,101919.97
2018-03-21T23:22:01.011Z,101913.34
2018-03-21T23:24:29.414Z,101909.22
2018-03-21T23:26:57.865Z,101909.89
2018-03-21T23:29:26.279Z,101907.69
2018-03-21T23:31:54.672Z,101900.31
2018-03-21T23:34:24.612Z,101901.50
2018-03-21T23:36:53.274Z,101889.92
2018-03-21T23:39:21.681Z,101889.62
2018-03-21T23:41:50.948Z,101883.52
2018-03-21T23:44:19.512Z,101886.33
2018-03-21T23:46:47.908Z,101883.17
2018-03-21T23:49:16.320Z,101878.84
2018-03-21T23:51:45.502Z,101876.11
2018-03-21T23:54:13.902Z,101880.39
2018-03-21T23:56:43.080Z,101889.48
2018-03-21T23:59:11.484Z,101886.68
